Time;durP1;ratioP1;P1;durP2;ratioP2;P2;SDS_P1;SDS_P2;PMS_P1;PMS_P2;Temp;Humidity;BMP_temperature;BMP_pressure;BME280_temperature;BME280_humidity;BME280_pressure;Samples;Min_cycle;Max_cycle;Signal;HPM_P1;HPM_P2
2022/08/24 00:01:14;;;;;;;5.20;2.80;;;;;;;29.20;45.59;100554.73;104601;1309;61293;-85
2022/08/24 00:03:41;;;;;;;5.50;2.80;;;;;;;29.20;45.71;100555.45;104757;1308;72909;-85
2022/08/24 00:06:10;;;;;;;4.70;2.60;;;;;;;29.20;45.61;100561.80;104719;1308;74990;-85
2022/08/24 00:08:36;;;;;;;4.10;2.40;;;;;;;29.21;45.72;100562.85;104529;1308;61332;-85
2022/08/24 00:11:02;;;;;;;6.20;2.70;;;;;;;29.20;45.62;100567.27;104666;1308;61169;-85
2022/08/24 00:13:28;;;;;;;4.80;2.50;;;;;;;29.20;45.58;100575.94;104540;1309;61173;-85
2022/08/24 00:15:57;;;;;;;4.10;2.30;;;;;;;29.20;45.60;100586.29;104611;1309;61296;-85
2022/08/24 00:18:22;;;;;;;4.10;2.90;;;;;;;29.20;45.66;100595.91;104638;1307;61326;-84
2022/08/24 00:20:48;;;;;;;5.00;2.70;;;;;;;29.20;45.61;100603.31;104623;1306;61519;-87
2022/08/24 00:23:14;;;;;;;4.70;2.70;;;;;;;29.20;45.88;100611.30;104611;1309;61283;-85
2022/08/24 00:25:40;;;;;;;5.70;2.70;;;;;;;29.20;45.74;100619.62;104582;1309;61182;-86
2022/08/24 00:28:06;;;;;;;5.10;2.80;;;;;;;29.19;45.58;100624.04;104596;1306;61427;-86
2022/08/24 00:30:32;;;;;;;5.10;2.50;;;;;;;29.19;45.80;100633.31;104523;1309;61474;-86
2022/08/24 00:32:58;;;;;;;4.40;2.60;;;;;;;29.19;45.53;100638.38;104704;1308;61288;-87
2022/08/24 00:35:29;;;;;;;4.00;2.40;;;;;;;29.19;45.57;100645.65;104724;1308;61259;-86
2022/08/24 00:37:55;;;;;;;4.00;2.40;;;;;;;29.18;45.74;100646.98;104597;1308;74654;-85
2022/08/24 00:40:28;;;;;;;4.60;2.30;;;;;;;29.19;45.58;100646.20;104744;1307;61297;-85
2022/08/24 00:42:55;;;;;;;4.60;2.20;;;;;;;29.19;45.61;100646.27;104716;1309;61129;-86
2022/08/24 00:45:21;;;;;;;5.50;2.40;;;;;;;29.18;45.56;100649.52;104677;1309;61777;-86
2022/08/24 00:48:15;;;;;;;4.90;2.60;;;;;;;29.18;45.63;100651.35;104648;1309;61215;-85
2022/08/24 00:50:50;;;;;;;4.90;2.60;;;;;;;29.18;45.59;100649.77;104788;1309;61262;-85
2022/08/24 00:53:38;;;;;;;4.20;2.60;;;;;;;29.18;45.64;100656.63;104646;1309;61479;-85
2022/08/24 00:56:08;;;;;;;4.50;2.50;;;;;;;29.17;45.63;100663.22;104712;1308;74397;-85
2022/08/24 00:58:38;;;;;;;4.30;2.30;;;;;;;29.17;45.65;100671.04;104522;1309;73475;-84
2022/08/24 01:01:05;;;;;;;4.60;2.60;;;;;;;29.17;45.64;100670.32;104655;1309;61193;-86
2022/08/24 01:03:33;;;;;;;4.80;2.50;;;;;;;29.17;45.62;100670.64;104576;1309;61327;-87
2022/08/24 01:05:58;;;;;;;4.20;2.40;;;;;;;29.18;45.49;100664.64;104677;1309;72857;-85
2022/08/24 01:08:24;;;;;;;5.00;2.40;;;;;;;29.17;45.70;100663.42;104811;1308;61393;-85
2022/08/24 01:10:52;;;;;;;4.50;2.30;;;;;;;29.18;45.62;100656.48;104626;1309;61286;-84
2022/08/24 01:13:19;;;;;;;;;;;;;;;29.18;45.65;100649.63;104599;1308;60499;-85
2022/08/24 01:15:47;;;;;;;3.80;2.40;;;;;;;29.15;45.55;100648.84;104710;1308;71797;-85
2022/08/24 01:21:06;;;;;;;5.00;2.80;;;;;;;29.15;45.70;100649.20;104769;1307;61189;-85
2022/08/24 01:23:41;;;;;;;4.80;2.50;;;;;;;29.15;45.52;100646.30;104708;1309;61385;-85
2022/08/24 01:26:09;;;;;;;5.70;2.80;;;;;;;29.15;45.58;100646.09;104607;1309;72852;-85
2022/08/24 01:29:01;;;;;;;4.60;2.30;;;;;;;29.15;45.54;100639.73;104680;1309;76056;-85
2022/08/24 01:31:26;;;;;;;3.80;2.30;;;;;;;29.15;45.50;100632.33;104381;1312;61189;-85
2022/08/24 01:33:53;;;;;;;4.70;2.50;;;;;;;29.15;45.52;100629.44;104272;1312;61266;-85
2022/08/24 01:36:59;;;;;;;4.30;2.50;;;;;;;29.14;45.62;100627.13;104375;1312;61291;-85
2022/08/24 01:39:42;;;;;;;4.80;2.50;;;;;;;29.14;45.61;100625.73;103900;1318;74724;-85
2022/08/24 01:42:10;;;;;;;5.30;2.40;;;;;;;29.15;45.55;100634.39;103754;1318;61872;-85
2022/08/24 01:44:39;;;;;;;4.50;2.60;;;;;;;29.14;45.58;100638.95;103798;1318;61134;-85
2022/08/24 01:47:07;;;;;;;4.00;2.30;;;;;;;29.15;45.66;100637.08;103788;1318;74560;-84
2022/08/24 01:49:34;;;;;;;3.70;2.20;;;;;;;29.15;45.31;100637.98;103607;1318;74910;-85
2022/08/24 01:52:00;;;;;;;5.90;2.70;;;;;;;29.15;45.50;100645.03;103768;1318;61266;-85
2022/08/24 01:54:30;;;;;;;3.90;2.50;;;;;;;29.15;45.59;100649.77;103647;1317;60133;-85
2022/08/24 01:57:05;;;;;;;4.80;2.50;;;;;;;29.14;45.43;100650.16;103764;1318;72716;-85
2022/08/24 01:59:31;;;;;;;5.60;2.60;;;;;;;29.14;45.62;100653.66;103644;1315;74680;-85
2022/08/24 02:02:10;;;;;;;4.40;2.30;;;;;;;29.14;45.53;100652.41;103666;1318;61350;-85
2022/08/24 02:04:36;;;;;;;4.60;2.40;;;;;;;29.14;45.51;100654.34;103550;1317;61179;-85
2022/08/24 02:07:02;;;;;;;4.50;2.20;;;;;;;29.14;45.45;100651.86;103961;1317;71856;-85
2022/08/24 02:09:28;;;;;;;5.30;2.50;;;;;;;29.14;45.52;100665.28;104077;1308;61343;-87
2022/08/24 02:11:54;;;;;;;4.90;2.50;;;;;;;29.14;45.52;100665.08;104576;1309;61295;-87
2022/08/24 02:14:20;;;;;;;4.50;2.30;;;;;;;29.14;45.44;100669.05;104639;1309;61317;-87
2022/08/24 02:16:46;;;;;;;5.80;2.50;;;;;;;29.14;45.41;100667.45;104565;1309;61410;-86
2022/08/24 02:19:13;;;;;;;4.60;2.50;;;;;;;29.13;45.49;100662.45;104706;1309;61288;-85
2022/08/24 02:21:38;;;;;;;4.80;2.40;;;;;;;29.13;45.67;100657.02;104595;1307;61372;-85
2022/08/24 02:24:04;;;;;;;6.50;2.60;;;;;;;29.12;45.48;100658.14;104642;1306;59133;-85
2022/08/24 02:26:30;;;;;;;5.10;2.60;;;;;;;29.12;45.29;100656.89;104632;1307;61456;-85
2022/08/24 02:28:56;;;;;;;5.30;2.50;;;;;;;29.13;45.44;100655.25;104602;1307;72744;-84
2022/08/24 02:31:21;;;;;;;6.20;2.40;;;;;;;29.12;45.46;100651.34;104560;1308;61313;-84
2022/08/24 02:33:48;;;;;;;6.60;2.50;;;;;;;29.12;45.54;100647.30;104707;1309;61213;-84
2022/08/24 02:36:14;;;;;;;4.80;2.40;;;;;;;29.12;45.48;100646.96;104763;1307;61171;-85
2022/08/24 02:38:40;;;;;;;6.30;2.40;;;;;;;29.13;45.50;100647.11;104591;1307;61263;-85
2022/08/24 02:41:06;;;;;;;5.20;2.60;;;;;;;29.11;45.34;100647.57;104689;1306;59317;-85
2022/08/24 02:43:31;;;;;;;6.70;2.70;;;;;;;29.12;45.32;100647.91;104605;1306;61221;-86
2022/08/24 02:45:58;;;;;;;6.10;2.50;;;;;;;29.11;45.38;100649.20;104619;1309;61317;-85
2022/08/24 02:48:24;;;;;;;3.90;2.50;;;;;;;29.11;45.35;100648.83;104617;1306;61169;-85
2022/08/24 02:50:51;;;;;;;7.00;2.60;;;;;;;29.11;45.26;100641.05;104633;1306;72575;-85
2022/08/24 02:53:19;;;;;;;3.60;2.30;;;;;;;29.11;45.42;100641.99;104628;1306;73487;-84
2022/08/24 02:55:45;;;;;;;5.00;2.40;;;;;;;29.11;45.45;100644.52;104621;1307;61119;-84
2022/08/24 02:58:11;;;;;;;3.90;2.30;;;;;;;29.11;45.28;100648.20;104751;1307;61384;-84
2022/08/24 03:00:38;;;;;;;6.50;2.50;;;;;;;29.11;45.25;100645.09;104716;1309;61393;-84
2022/08/24 03:03:05;;;;;;;4.80;2.50;;;;;;;29.10;45.10;100647.48;104746;1309;61274;-85
2022/08/24 03:05:32;;;;;;;3.20;2.00;;;;;;;29.10;45.22;100649.11;103105;1309;2019289;-85
2022/08/24 03:07:57;;;;;;;5.30;2.30;;;;;;;29.10;44.97;100653.28;104696;1306;61276;-85
2022/08/24 03:10:23;;;;;;;4.40;2.50;;;;;;;29.09;45.30;100650.30;104572;1309;61470;-85
2022/08/24 03:12:50;;;;;;;4.40;2.50;;;;;;;29.10;45.19;100655.83;104580;1308;61265;-85
2022/08/24 03:15:15;;;;;;;3.30;2.20;;;;;;;29.10;45.40;100659.86;104548;1308;61333;-86
2022/08/24 03:17:42;;;;;;;4.90;2.40;;;;;;;29.10;45.27;100662.01;104963;1302;61268;-86
2022/08/24 03:20:12;;;;;;;4.50;2.60;;;;;;;29.10;45.14;100663.09;104930;1303;61375;-85
2022/08/24 03:22:38;;;;;;;4.30;2.70;;;;;;;29.10;45.18;100660.42;104984;1302;74677;-85
2022/08/24 03:25:04;;;;;;;4.90;2.40;;;;;;;29.09;45.39;100660.68;104970;1302;61368;-86
2022/08/24 03:27:29;;;;;;;4.60;2.40;;;;;;;29.10;45.30;100656.81;104949;1305;61371;-87
2022/08/24 03:29:55;;;;;;;4.40;2.60;;;;;;;29.09;45.32;100652.16;104896;1302;61239;-87
2022/08/24 03:32:21;;;;;;;5.70;2.50;;;;;;;29.09;45.32;100651.08;104976;1303;61144;-85
2022/08/24 03:34:47;;;;;;;3.90;2.30;;;;;;;29.09;45.26;100645.30;104970;1302;61267;-84
2022/08/24 03:37:37;;;;;;;5.20;2.40;;;;;;;29.09;45.13;100643.09;105031;1304;61335;-84
2022/08/24 03:40:04;;;;;;;4.00;2.60;;;;;;;29.09;45.12;100636.39;104675;1309;61259;-85
2022/08/24 03:42:32;;;;;;;7.90;2.60;;;;;;;29.08;45.21;100633.78;104547;1309;71575;-85
2022/08/24 03:44:57;;;;;;;4.50;2.50;;;;;;;29.08;45.20;100628.91;104561;1308;74710;-85
2022/08/24 03:47:24;;;;;;;6.30;2.50;;;;;;;29.07;45.04;100624.13;104575;1309;61186;-84
2022/08/24 03:49:50;;;;;;;5.50;2.30;;;;;;;29.06;45.21;100619.55;104618;1308;61890;-84
2022/08/24 03:52:16;;;;;;;3.90;2.30;;;;;;;29.06;45.06;100619.02;104563;1309;61467;-85
2022/08/24 03:54:42;;;;;;;6.40;2.50;;;;;;;29.05;45.04;100628.55;104540;1308;61308;-84
2022/08/24 03:57:07;;;;;;;7.10;2.80;;;;;;;29.04;45.03;100634.35;104582;1309;61452;-84
2022/08/24 03:59:33;;;;;;;5.20;2.50;;;;;;;29.04;44.83;100637.51;104516;1309;61381;-85
2022/08/24 04:01:59;;;;;;;4.20;2.40;;;;;;;29.04;44.93;100643.68;104618;1309;61438;-85
2022/08/24 04:04:25;;;;;;;8.60;2.60;;;;;;;29.03;44.70;100649.52;104550;1308;74003;-85
2022/08/24 04:06:50;;;;;;;5.70;2.50;;;;;;;29.03;44.76;100651.73;104630;1308;61266;-85
2022/08/24 04:09:16;;;;;;;7.60;2.80;;;;;;;29.03;44.42;100655.51;104704;1309;61281;-85
2022/08/24 04:12:09;;;;;;;4.30;2.50;;;;;;;29.03;44.44;100655.58;104562;1309;61256;-84
2022/08/24 04:14:34;;;;;;;6.60;2.80;;;;;;;29.02;44.33;100663.11;104299;1313;73903;-85
2022/08/24 04:17:00;;;;;;;7.50;2.70;;;;;;;29.01;44.23;100662.33;104357;1308;61591;-85
2022/08/24 04:19:26;;;;;;;7.30;3.00;;;;;;;29.00;44.41;100659.44;104534;1308;61331;-85
2022/08/24 04:21:56;;;;;;;5.50;2.50;;;;;;;29.00;44.17;100653.48;104558;1308;61503;-85
2022/08/24 04:24:22;;;;;;;5.40;2.70;;;;;;;29.00;44.24;100650.06;104489;1308;71779;-85
2022/08/24 04:26:48;;;;;;;10.30;2.70;;;;;;;29.00;44.24;100645.89;104563;1308;61171;-85
2022/08/24 04:29:16;;;;;;;8.50;2.90;;;;;;;29.00;44.02;100643.73;104545;1310;61415;-85
2022/08/24 04:31:43;;;;;;;9.20;3.10;;;;;;;29.00;43.96;100648.06;104486;1310;61392;-85
2022/08/24 04:34:09;;;;;;;14.20;3.10;;;;;;;29.00;43.77;100651.36;104475;1310;61286;-85
2022/08/24 04:36:35;;;;;;;18.60;3.20;;;;;;;28.99;43.98;100645.08;104473;1311;61306;-85
2022/08/24 04:39:01;;;;;;;19.50;4.00;;;;;;;29.00;43.95;100653.73;104478;1309;61357;-85
2022/08/24 04:41:27;;;;;;;27.90;3.60;;;;;;;28.99;43.90;100656.35;104544;1309;61274;-85
2022/08/24 04:43:53;;;;;;;27.30;3.60;;;;;;;29.00;43.76;100650.09;104466;1310;61263;-86
2022/08/24 04:46:20;;;;;;;38.80;4.40;;;;;;;28.99;43.79;100646.15;104443;1309;61282;-86
2022/08/24 04:48:47;;;;;;;17.50;3.10;;;;;;;29.00;43.79;100642.85;104500;1308;61272;-85
2022/08/24 04:51:14;;;;;;;24.20;4.30;;;;;;;28.99;43.57;100637.63;104605;1302;61262;-85
2022/08/24 04:54:03;;;;;;;25.80;4.10;;;;;;;29.00;43.54;100638.32;104958;1302;61298;-85
2022/08/24 04:56:29;;;;;;;25.50;4.30;;;;;;;28.99;43.38;100640.61;104568;1306;75751;-85
2022/08/24 04:58:55;;;;;;;19.30;3.70;;;;;;;28.98;43.35;100640.45;104536;1306;61926;-85
2022/08/24 05:01:24;;;;;;;18.10;3.50;;;;;;;28.99;43.30;100634.07;104481;1308;61379;-85
2022/08/24 05:03:52;;;;;;;22.00;4.20;;;;;;;28.99;43.40;100635.36;104559;1309;73797;-85
2022/08/24 05:06:19;;;;;;;19.40;4.10;;;;;;;28.99;43.26;100633.55;104607;1308;75886;-85
2022/08/24 05:09:12;;;;;;;16.40;3.80;;;;;;;28.99;43.50;100635.52;104600;1309;61408;-85
2022/08/24 05:11:39;;;;;;;23.00;3.90;;;;;;;28.98;42.91;100627.77;104327;1314;61262;-85
2022/08/24 05:14:06;;;;;;;12.30;3.30;;;;;;;28.98;43.02;100629.58;104131;1313;72674;-85
2022/08/24 05:16:36;;;;;;;22.60;3.70;;;;;;;28.99;43.06;100629.17;104207;1313;74946;-85
2022/08/24 05:19:05;;;;;;;24.20;4.00;;;;;;;28.99;43.12;100626.48;104156;1313;61192;-85
2022/08/24 05:21:31;;;;;;;;;;;;;;;28.98;43.09;100623.77;104229;1313;61356;-85
2022/08/24 05:23:57;;;;;;;16.70;4.00;;;;;;;28.96;43.12;100625.32;104364;1313;61442;-86
2022/08/24 05:26:24;;;;;;;20.20;4.10;;;;;;;28.96;43.23;100622.91;104270;1313;61554;-85
2022/08/24 05:28:59;;;;;;;17.10;3.70;;;;;;;28.96;43.07;100622.74;104200;1315;61387;-85
2022/08/24 05:31:29;;;;;;;21.00;3.90;;;;;;;28.97;43.10;100625.41;104149;1313;60270;-85
2022/08/24 05:33:55;;;;;;;18.50;3.90;;;;;;;28.97;43.20;100623.63;104289;1311;72819;-85
2022/08/24 05:36:47;;;;;;;13.60;3.50;;;;;;;28.96;42.94;100619.52;104538;1309;61192;-84
2022/08/24 05:39:13;;;;;;;10.20;3.30;;;;;;;28.96;43.09;100620.64;104379;1313;61311;-85
2022/08/24 05:41:40;;;;;;;9.80;3.30;;;;;;;28.96;42.92;100619.52;104227;1314;61296;-86
2022/08/24 05:44:07;;;;;;;12.00;3.30;;;;;;;28.96;42.94;100616.09;104190;1315;61675;-86
2022/08/24 05:46:32;;;;;;;11.00;3.70;;;;;;;28.97;42.96;100617.11;104178;1314;74717;-86
2022/08/24 05:49:00;;;;;;;10.70;3.20;;;;;;;28.97;42.70;100622.30;104330;1308;61280;-86
2022/08/24 05:51:52;;;;;;;10.50;3.10;;;;;;;28.97;42.84;100618.29;104443;1310;61280;-86
2022/08/24 05:54:18;;;;;;;12.50;3.40;;;;;;;28.98;42.58;100617.77;104315;1313;73077;-86
2022/08/24 05:56:54;;;;;;;11.40;3.40;;;;;;;28.97;42.72;100616.70;104229;1313;61863;-86
2022/08/24 05:59:21;;;;;;;12.90;3.60;;;;;;;28.98;42.59;100621.29;104214;1313;61382;-86
2022/08/24 06:01:47;;;;;;;12.80;3.30;;;;;;;28.99;42.54;100621.21;104112;1315;60705;-85
2022/08/24 06:04:12;;;;;;;13.80;3.30;;;;;;;28.99;42.37;100621.19;104355;1313;61601;-85
2022/08/24 06:06:38;;;;;;;10.50;3.20;;;;;;;29.00;42.45;100617.67;104214;1315;60224;-84
2022/08/24 06:09:04;;;;;;;8.90;3.20;;;;;;;29.00;42.61;100618.38;103967;1314;61521;-86
2022/08/24 06:11:33;;;;;;;9.90;3.10;;;;;;;29.00;42.44;100621.60;104131;1314;62791;-85
2022/08/24 06:14:01;;;;;;;15.70;3.60;;;;;;;29.00;42.65;100619.23;104163;1314;61942;-86
2022/08/24 06:16:26;;;;;;;10.00;3.20;;;;;;;29.01;42.39;100618.95;104212;1311;75861;-86
2022/08/24 06:18:52;;;;;;;6.70;3.00;;;;;;;29.01;42.33;100621.25;104364;1308;61400;-85
2022/08/24 06:21:22;;;;;;;12.30;3.30;;;;;;;29.02;42.44;100618.88;104476;1308;61312;-85
2022/08/24 06:23:49;;;;;;;6.70;3.10;;;;;;;29.02;42.38;100612.91;104449;1310;73062;-85
2022/08/24 06:29:01;;;;;;;7.40;3.00;;;;;;;29.02;42.27;100617.97;104365;1308;61424;-84
2022/08/24 06:31:27;;;;;;;8.00;3.10;;;;;;;29.03;42.41;100622.05;104592;1304;61353;-85
2022/08/24 06:33:53;;;;;;;11.60;3.20;;;;;;;29.03;42.39;100622.90;104901;1303;61413;-85
2022/08/24 06:36:21;;;;;;;8.10;3.10;;;;;;;29.03;42.40;100625.48;104817;1303;61140;-85
2022/08/24 06:38:46;;;;;;;8.20;3.40;;;;;;;29.03;42.20;100622.02;104889;1302;61166;-86
2022/08/24 06:41:13;;;;;;;9.80;3.50;;;;;;;29.03;42.22;100621.85;105020;1300;59936;-85
2022/08/24 06:43:39;;;;;;;10.80;3.20;;;;;;;29.04;42.09;100621.41;104840;1303;60195;-85
2022/08/24 06:46:04;;;;;;;9.70;3.40;;;;;;;29.04;42.43;100621.73;104854;1303;61278;-85
2022/08/24 06:48:30;;;;;;;6.10;2.80;;;;;;;29.04;42.18;100620.96;104878;1303;61167;-84
2022/08/24 06:50:56;;;;;;;11.30;3.40;;;;;;;29.04;42.20;100623.13;105020;1302;61281;-85
2022/08/24 06:53:23;;;;;;;9.10;3.50;;;;;;;29.05;42.14;100621.95;104884;1303;61389;-85
2022/08/24 06:55:54;;;;;;;10.40;3.20;;;;;;;29.06;42.30;100622.09;104855;1302;72846;-86
2022/08/24 06:58:22;;;;;;;6.90;3.00;;;;;;;29.07;42.27;100627.96;104853;1302;73554;-86
2022/08/24 07:00:48;;;;;;;7.80;3.30;;;;;;;29.07;42.33;100630.83;104774;1303;61648;-85
2022/08/24 07:03:15;;;;;;;8.80;3.40;;;;;;;29.07;42.41;100636.02;104998;1302;61377;-85
2022/08/24 07:05:49;;;;;;;7.10;3.20;;;;;;;29.08;42.21;100641.90;104893;1303;61142;-84
2022/08/24 07:08:15;;;;;;;8.30;3.40;;;;;;;29.08;42.38;100636.87;104799;1303;74650;-86
2022/08/24 07:10:41;;;;;;;9.20;3.30;;;;;;;29.09;42.28;100638.23;104860;1302;59720;-86
2022/08/24 07:13:07;;;;;;;9.50;3.30;;;;;;;29.10;42.37;100640.88;105090;1302;61617;-85
2022/08/24 07:16:00;;;;;;;7.70;3.40;;;;;;;29.09;42.19;100643.23;104859;1303;61285;-85
2022/08/24 07:18:27;;;;;;;9.90;3.50;;;;;;;29.10;42.60;100650.42;104557;1309;74828;-85
2022/08/24 07:20:53;;;;;;;6.10;3.50;;;;;;;29.10;42.30;100653.18;104543;1309;61160;-85
2022/08/24 07:23:21;;;;;;;9.10;3.50;;;;;;;29.11;42.25;100655.46;104563;1306;61179;-85
2022/08/24 07:25:46;;;;;;;6.70;3.20;;;;;;;29.11;42.16;100655.79;104515;1308;71834;-85
2022/08/24 07:28:14;;;;;;;9.50;3.30;;;;;;;29.11;42.57;100655.21;104644;1309;61263;-86
2022/08/24 07:30:41;;;;;;;8.10;3.30;;;;;;;29.11;42.39;100653.96;104598;1308;61263;-85
2022/08/24 07:33:07;;;;;;;8.30;3.00;;;;;;;29.11;42.31;100654.27;104520;1309;61131;-85
2022/08/24 07:35:35;;;;;;;22.90;4.50;;;;;;;29.12;42.47;100657.86;104514;1307;61378;-85
2022/08/24 07:38:03;;;;;;;12.50;3.90;;;;;;;29.12;42.57;100659.26;104609;1309;75624;-86
2022/08/24 07:40:29;;;;;;;8.40;3.40;;;;;;;29.12;42.29;100662.69;104742;1307;61457;-85
2022/08/24 07:42:56;;;;;;;7.50;3.30;;;;;;;29.13;42.35;100663.75;104575;1307;61514;-85
2022/08/24 07:45:23;;;;;;;6.30;2.90;;;;;;;29.13;42.53;100667.87;104796;1306;73713;-85
2022/08/24 07:47:51;;;;;;;8.50;3.10;;;;;;;29.13;42.54;100664.95;104628;1306;61575;-85
2022/08/24 07:50:17;;;;;;;10.40;3.80;;;;;;;29.14;42.41;100668.71;104483;1308;61322;-85
2022/08/24 07:52:43;;;;;;;10.00;3.20;;;;;;;29.14;42.53;100668.88;104514;1308;59199;-85
2022/08/24 07:55:10;;;;;;;10.10;3.60;;;;;;;29.14;42.52;100663.99;104573;1303;61403;-86
2022/08/24 07:57:59;;;;;;;11.50;3.60;;;;;;;29.14;42.47;100663.20;104803;1302;61240;-86
2022/08/24 08:00:26;;;;;;;9.90;3.40;;;;;;;29.15;42.61;100658.46;104567;1307;62670;-85
2022/08/24 08:02:53;;;;;;;9.70;3.60;;;;;;;29.14;42.50;100655.06;104565;1308;61250;-85
2022/08/24 08:05:20;;;;;;;10.70;3.50;;;;;;;29.14;42.42;100649.65;104476;1309;72899;-85
2022/08/24 08:07:46;;;;;;;14.20;3.50;;;;;;;29.14;42.49;100646.23;104480;1307;75634;-85
2022/08/24 08:10:11;;;;;;;11.30;3.60;;;;;;;29.14;42.28;100647.27;104457;1309;61514;-87
2022/08/24 08:12:37;;;;;;;10.50;3.60;;;;;;;29.14;42.30;100648.73;104338;1309;61323;-84
2022/08/24 08:15:08;;;;;;;10.50;4.00;;;;;;;29.15;42.21;100650.40;104451;1309;61381;-84
2022/08/24 08:17:38;;;;;;;9.20;3.40;;;;;;;29.15;42.20;100651.86;104419;1309;75293;-85
2022/08/24 08:20:04;;;;;;;13.50;3.70;;;;;;;29.15;42.35;100647.14;104397;1312;61298;-85
2022/08/24 08:25:17;;;;;;;10.50;3.50;;;;;;;29.16;42.27;100638.20;104399;1309;72588;-85
2022/08/24 08:27:44;;;;;;;9.10;3.30;;;;;;;29.16;42.30;100633.00;104390;1311;76122;-85
2022/08/24 08:30:11;;;;;;;10.60;3.50;;;;;;;29.16;42.36;100633.66;104355;1312;62023;-85
2022/08/24 08:32:38;;;;;;;9.90;3.50;;;;;;;29.16;42.34;100632.02;104460;1309;61289;-85
2022/08/24 08:35:04;;;;;;;9.40;3.70;;;;;;;29.17;42.63;100629.79;104450;1309;61495;-85
2022/08/24 08:37:31;;;;;;;11.20;3.70;;;;;;;29.17;42.42;100631.55;104587;1306;62283;-84
2022/08/24 08:39:56;;;;;;;10.40;3.70;;;;;;;29.17;42.52;100630.34;104583;1308;61233;-85
2022/08/24 08:42:45;;;;;;;9.80;3.50;;;;;;;29.16;42.54;100628.39;104441;1309;61425;-85
2022/08/24 08:45:21;;;;;;;15.50;3.40;;;;;;;29.17;42.53;100630.73;104654;1307;73835;-87
2022/08/24 08:48:25;;;;;;;9.20;3.40;;;;;;;29.17;42.76;100631.39;104588;1308;74801;-85
2022/08/24 08:50:59;;;;;;;10.30;3.40;;;;;;;29.17;42.48;100631.79;104563;1308;60716;-85
2022/08/24 08:54:22;;;;;;;12.80;3.30;;;;;;;29.16;42.39;100627.68;104532;1309;61124;-85
2022/08/24 08:57:20;;;;;;;10.60;4.30;;;;;;;29.15;42.29;100627.60;104232;1311;73846;-85
2022/08/24 09:00:14;;;;;;;10.20;3.60;;;;;;;29.14;42.62;100626.41;104211;1313;74821;-85
2022/08/24 09:03:35;;;;;;;10.70;4.00;;;;;;;29.15;42.60;100622.74;104339;1312;61415;-84
2022/08/24 09:06:34;;;;;;;7.20;3.30;;;;;;;29.14;42.40;100624.31;103957;1315;61490;-87
2022/08/24 09:09:09;;;;;;;10.40;4.00;;;;;;;29.15;42.30;100632.56;104057;1315;72735;-85
2022/08/24 09:12:09;;;;;;;19.10;5.00;;;;;;;29.14;42.44;100629.38;104149;1314;75958;-85
2022/08/24 09:14:37;;;;;;;13.30;4.70;;;;;;;29.13;42.15;100625.33;103380;1319;61173;-85
2022/08/24 09:17:32;;;;;;;9.80;3.40;;;;;;;29.13;42.11;100623.86;103465;1319;61281;-85
2022/08/24 09:20:07;;;;;;;10.80;3.30;;;;;;;29.13;42.03;100625.63;103439;1320;72870;-85
2022/08/24 09:22:38;;;;;;;8.70;3.50;;;;;;;29.14;42.14;100623.94;103332;1320;76085;-85
2022/08/24 09:25:29;;;;;;;8.80;3.60;;;;;;;29.15;42.13;100621.69;103313;1319;61615;-85
2022/08/24 09:28:12;;;;;;;15.00;4.00;;;;;;;29.14;41.83;100628.08;103234;1319;61180;-85
2022/08/24 09:31:00;;;;;;;8.60;3.30;;;;;;;29.15;42.05;100631.07;103767;1318;74242;-85
2022/08/24 09:33:30;;;;;;;13.40;3.90;;;;;;;29.15;42.01;100625.13;103661;1316;75352;-85
2022/08/24 09:36:25;;;;;;;8.70;3.60;;;;;;;29.15;42.13;100630.46;103542;1319;61303;-85
2022/08/24 09:38:58;;;;;;;11.10;4.00;;;;;;;29.16;41.89;100627.55;104392;1311;60452;-85
2022/08/24 09:41:50;;;;;;;11.70;3.50;;;;;;;29.16;42.20;100630.73;104313;1311;71438;-85
2022/08/24 09:44:40;;;;;;;13.40;3.80;;;;;;;29.15;41.99;100628.30;104393;1311;74689;-85
2022/08/24 09:47:46;;;;;;;12.60;3.50;;;;;;;29.16;41.96;100631.29;103727;1319;61060;-85
2022/08/24 09:50:23;;;;;;;11.10;3.70;;;;;;;29.16;41.85;100623.22;103650;1319;61357;-85
2022/08/24 09:53:26;;;;;;;14.10;3.30;;;;;;;29.16;41.61;100625.12;104171;1311;74402;-85
2022/08/24 09:55:56;;;;;;;10.70;3.40;;;;;;;29.16;41.70;100621.66;104436;1309;74721;-85
2022/08/24 09:58:39;;;;;;;14.80;3.70;;;;;;;29.18;41.74;100621.90;104431;1310;61389;-85
2022/08/24 10:01:35;;;;;;;9.90;4.00;;;;;;;29.18;41.82;100618.19;104445;1309;61258;-85
2022/08/24 10:04:25;;;;;;;10.10;4.00;;;;;;;29.19;41.83;100617.45;104438;1311;71091;-85
2022/08/24 10:07:02;;;;;;;10.40;3.70;;;;;;;29.19;41.82;100617.95;104445;1309;74851;-86
2022/08/24 10:09:57;;;;;;;13.30;3.80;;;;;;;29.19;41.82;100618.44;104516;1310;61259;-85
2022/08/24 10:12:34;;;;;;;8.90;3.20;;;;;;;29.19;41.91;100610.45;104236;1314;61266;-85
2022/08/24 10:15:31;;;;;;;11.40;3.60;;;;;;;29.20;41.79;100612.98;104143;1314;72782;-85
2022/08/24 10:18:35;;;;;;;11.40;3.40;;;;;;;29.20;41.88;100616.37;104274;1314;75829;-85
2022/08/24 10:21:25;;;;;;;7.30;3.30;;;;;;;29.20;41.79;100610.76;104163;1314;61393;-85
2022/08/24 10:23:57;;;;;;;7.10;3.30;;;;;;;29.20;41.98;100605.11;104243;1311;61276;-85
2022/08/24 10:26:43;;;;;;;12.30;3.50;;;;;;;29.20;41.85;100604.58;104378;1311;72904;-86
2022/08/24 10:29:37;;;;;;;8.90;3.40;;;;;;;29.20;41.75;100603.45;104371;1310;74487;-85
2022/08/24 10:32:28;;;;;;;9.40;3.20;;;;;;;29.21;41.82;100599.05;104227;1313;61397;-86
2022/08/24 10:35:01;;;;;;;10.20;3.40;;;;;;;29.21;41.80;100595.08;104362;1310;61284;-85
2022/08/24 10:41:04;;;;;;;11.00;3.60;;;;;;;29.21;41.85;100601.25;104320;1311;74005;-84
2022/08/24 10:44:16;;;;;;;9.30;3.20;;;;;;;29.21;41.81;100601.34;104254;1311;61212;-85
2022/08/24 10:47:00;;;;;;;6.20;3.00;;;;;;;29.22;41.72;100604.95;104194;1316;61364;-85
2022/08/24 10:49:28;;;;;;;12.30;3.40;;;;;;;29.22;41.69;100607.60;104247;1311;72750;-85
2022/08/24 10:52:30;;;;;;;8.50;3.40;;;;;;;29.22;41.51;100607.06;104384;1309;74800;-85
2022/08/24 10:54:56;;;;;;;8.30;3.20;;;;;;;29.22;41.83;100609.10;104431;1311;61093;-85
2022/08/24 10:57:30;;;;;;;9.00;3.50;;;;;;;29.22;41.77;100605.64;104486;1310;61285;-85
2022/08/24 11:00:00;;;;;;;10.00;3.10;;;;;;;29.23;41.70;100597.92;104544;1309;72739;-84
2022/08/24 11:02:32;;;;;;;9.40;3.20;;;;;;;29.23;41.68;100598.63;104423;1311;75869;-85
2022/08/24 11:04:59;;;;;;;6.90;3.10;;;;;;;29.23;41.69;100590.62;104237;1313;61126;-86
2022/08/24 11:07:25;;;;;;;8.90;3.20;;;;;;;29.24;41.56;100586.98;104468;1309;61296;-85
2022/08/24 11:09:58;;;;;;;9.40;3.40;;;;;;;29.24;41.56;100587.49;104260;1311;61263;-85
2022/08/24 11:12:42;;;;;;;10.20;3.40;;;;;;;29.24;41.53;100590.55;104326;1313;74718;-85
2022/08/24 11:15:23;;;;;;;9.20;3.10;;;;;;;29.24;41.67;100588.52;104349;1309;61475;-85
2022/08/24 11:17:59;;;;;;;8.10;3.00;;;;;;;29.24;41.31;100586.58;104533;1310;61368;-85
2022/08/24 11:20:35;;;;;;;7.70;3.10;;;;;;;29.24;41.62;100583.99;104412;1309;73713;-86
2022/08/24 11:23:25;;;;;;;13.70;3.20;;;;;;;29.25;41.44;100578.67;104537;1303;76091;-85
2022/08/24 11:26:11;;;;;;;11.50;3.00;;;;;;;29.25;41.48;100571.80;104794;1303;61255;-85
2022/08/24 11:28:39;;;;;;;8.80;3.30;;;;;;;29.24;41.34;100568.74;104821;1303;61146;-86
2022/08/24 11:31:13;;;;;;;8.70;3.20;;;;;;;29.25;41.62;100568.20;104824;1303;72906;-85
2022/08/24 11:33:51;;;;;;;11.40;3.40;;;;;;;29.25;41.30;100561.10;104809;1303;74838;-86
2022/08/24 11:36:22;;;;;;;7.30;2.90;;;;;;;29.25;41.35;100552.20;104855;1303;61353;-85
2022/08/24 11:38:48;;;;;;;8.00;3.20;;;;;;;29.25;41.33;100557.98;104930;1303;61179;-85
2022/08/24 11:41:32;;;;;;;10.90;3.20;;;;;;;29.25;41.33;100553.25;104803;1303;61242;-86
2022/08/24 11:44:04;;;;;;;8.60;3.10;;;;;;;29.25;41.30;100554.52;104945;1303;74752;-85
2022/08/24 11:46:45;;;;;;;7.80;2.80;;;;;;;29.26;41.48;100547.79;104941;1303;61354;-85
2022/08/24 11:49:21;;;;;;;8.20;3.30;;;;;;;29.26;41.36;100542.55;104982;1303;61093;-85